createdAt,value
2018-08-13T00:02:09.460Z,1.30
2018-08-13T00:04:37.970Z,1.23
2018-08-13T00:07:08.196Z,1.30
2018-08-13T00:09:43.037Z,1.00
2018-08-13T00:12:14.330Z,1.20
2018-08-13T00:14:43.939Z,1.10
2018-08-13T00:17:15.424Z,0.97
2018-08-13T00:19:44.864Z,1.00
2018-08-13T00:22:13.931Z,1.10
2018-08-13T00:24:44.707Z,1.07
2018-08-13T00:27:14.200Z,1.00
2018-08-13T00:29:44.221Z,1.23
2018-08-13T00:32:14.505Z,0.80
2018-08-13T00:34:43.007Z,0.90
2018-08-13T00:37:13.433Z,0.90
2018-08-13T00:39:43.445Z,0.90
2018-08-13T00:42:12.016Z,1.37
2018-08-13T00:44:42.470Z,1.00
2018-08-13T00:47:13.680Z,1.10
2018-08-13T00:49:43.099Z,1.00
2018-08-13T00:52:12.493Z,1.00
2018-08-13T00:54:42.152Z,1.07
2018-08-13T01:02:14.048Z,1.10
2018-08-13T01:04:43.756Z,0.90
2018-08-13T01:07:12.788Z,1.10
2018-08-13T01:09:42.981Z,1.00
2018-08-13T01:12:13.671Z,1.30
2018-08-13T01:14:43.622Z,0.90
2018-08-13T01:17:15.346Z,1.07
2018-08-13T01:19:45.288Z,1.00
2018-08-13T01:22:15.269Z,0.93
2018-08-13T01:24:44.761Z,1.00
2018-08-13T01:27:20.668Z,1.00
2018-08-13T01:29:51.237Z,1.07
2018-08-13T01:32:20.893Z,1.20
2018-08-13T01:34:51.158Z,0.87
2018-08-13T01:37:24.136Z,1.00
2018-08-13T01:39:53.818Z,1.23
2018-08-13T01:42:23.722Z,0.97
2018-08-13T01:44:53.691Z,1.20
2018-08-13T01:47:24.308Z,1.00
2018-08-13T01:49:55.124Z,0.90
2018-08-13T01:52:27.033Z,0.90
2018-08-13T01:54:56.774Z,1.10
2018-08-13T01:57:31.525Z,0.90
2018-08-13T02:00:02.713Z,1.20
2018-08-13T02:02:32.733Z,1.30
2018-08-13T02:05:02.195Z,1.00
2018-08-13T02:07:32.002Z,1.00
2018-08-13T02:10:01.317Z,0.87
2018-08-13T02:12:31.368Z,0.90
2018-08-13T02:15:00.786Z,1.00
2018-08-13T02:17:36.126Z,0.93
2018-08-13T02:20:06.992Z,1.07
2018-08-13T02:22:36.474Z,0.93
2018-08-13T02:25:07.729Z,0.70
2018-08-13T02:27:38.846Z,1.00
2018-08-13T02:30:10.622Z,0.90
2018-08-13T02:32:41.545Z,0.90
2018-08-13T02:35:11.675Z,0.80
2018-08-13T02:37:48.462Z,1.27
2018-08-13T02:40:19.028Z,1.00
2018-08-13T02:42:49.034Z,1.00
2018-08-13T02:45:18.528Z,1.03
2018-08-13T02:47:49.221Z,0.80
2018-08-13T02:50:18.722Z,1.10
2018-08-13T02:52:48.851Z,0.90
2018-08-13T02:55:19.429Z,1.07
2018-08-13T02:57:49.529Z,1.00
2018-08-13T03:00:18.732Z,1.00
2018-08-13T03:02:47.917Z,1.00
2018-08-13T03:05:19.287Z,1.03
2018-08-13T03:07:50.142Z,1.30
2018-08-13T03:10:20.731Z,1.13
2018-08-13T03:12:51.091Z,0.90
2018-08-13T03:15:20.640Z,1.00
2018-08-13T03:17:50.797Z,1.20
2018-08-13T03:20:21.025Z,1.00
2018-08-13T03:22:50.448Z,1.10
2018-08-13T03:25:20.382Z,1.20
2018-08-13T03:27:51.388Z,1.00
2018-08-13T03:30:21.299Z,0.90
2018-08-13T03:32:49.820Z,1.00
2018-08-13T03:35:20.361Z,1.10
2018-08-13T03:37:50.973Z,1.10
2018-08-13T03:40:20.544Z,0.90
2018-08-13T03:42:49.904Z,0.87
2018-08-13T03:45:19.455Z,0.80
2018-08-13T03:47:48.520Z,1.00
2018-08-13T03:50:19.318Z,0.70
2018-08-13T03:52:48.388Z,1.07
2018-08-13T03:55:17.594Z,1.00
2018-08-13T03:57:48.671Z,1.13
2018-08-13T04:00:20.517Z,0.70
2018-08-13T04:02:50.101Z,1.10
2018-08-13T04:05:19.553Z,0.90
2018-08-13T04:07:56.569Z,1.00
2018-08-13T04:10:25.816Z,0.77
2018-08-13T04:12:56.329Z,0.90
2018-08-13T04:15:26.874Z,0.90
2018-08-13T04:17:55.406Z,1.00
2018-08-13T04:20:26.344Z,0.83
2018-08-13T04:22:55.686Z,0.90
2018-08-13T04:25:25.897Z,0.90
2018-08-13T04:27:56.426Z,0.90
2018-08-13T04:30:26.913Z,1.00
2018-08-13T04:32:58.234Z,0.87
2018-08-13T04:35:29.686Z,0.90
2018-08-13T04:38:00.457Z,1.30
2018-08-13T04:40:31.891Z,1.00
2018-08-13T04:43:04.440Z,0.93
2018-08-13T04:45:35.721Z,1.00
2018-08-13T04:48:08.071Z,0.97
2018-08-13T04:50:38.273Z,0.90
2018-08-13T04:53:10.558Z,0.87
2018-08-13T04:55:41.446Z,0.70
2018-08-13T04:58:11.963Z,0.80
2018-08-13T05:00:43.618Z,0.77
2018-08-13T05:03:13.933Z,1.10
2018-08-13T05:05:44.836Z,1.00
2018-08-13T05:08:16.154Z,0.90
2018-08-13T05:10:45.713Z,0.97
2018-08-13T05:13:16.666Z,0.97
2018-08-13T05:15:48.429Z,0.83
2018-08-13T05:18:18.041Z,0.90
2018-08-13T05:20:50.495Z,0.87
2018-08-13T05:23:20.302Z,0.77
2018-08-13T05:25:50.105Z,0.90
2018-08-13T05:28:21.853Z,0.97
2018-08-13T05:30:52.168Z,0.90
2018-08-13T05:33:22.923Z,0.97
2018-08-13T05:35:54.254Z,0.90
2018-08-13T05:38:24.914Z,1.10
2018-08-13T05:40:55.558Z,0.90
2018-08-13T05:43:25.171Z,0.80
2018-08-13T05:45:55.298Z,0.87
2018-08-13T05:48:25.914Z,0.80
2018-08-13T05:50:54.719Z,0.90
2018-08-13T05:53:24.331Z,0.90
2018-08-13T05:55:54.190Z,0.90
2018-08-13T06:00:58.110Z,1.00
2018-08-13T06:03:27.526Z,1.00
2018-08-13T06:05:57.472Z,1.10
2018-08-13T06:08:27.964Z,1.20
2018-08-13T06:10:57.555Z,1.33
2018-08-13T06:13:27.076Z,1.20
2018-08-13T06:15:55.606Z,1.23
2018-08-13T06:18:25.654Z,1.23
2018-08-13T06:20:54.538Z,1.20
2018-08-13T06:23:24.229Z,1.63
2018-08-13T06:25:55.224Z,1.30
2018-08-13T06:28:25.280Z,1.37
2018-08-13T06:30:55.653Z,1.40
2018-08-13T06:33:25.805Z,1.47
2018-08-13T06:35:56.756Z,1.40
2018-08-13T06:38:28.603Z,1.33
2018-08-13T06:40:57.655Z,1.50
2018-08-13T06:43:27.990Z,1.67
2018-08-13T06:45:56.985Z,1.73
2018-08-13T06:48:28.173Z,1.70
2018-08-13T06:50:58.686Z,1.60
2018-08-13T06:53:27.442Z,1.40
2018-08-13T06:55:56.844Z,1.80
2018-08-13T07:03:27.825Z,1.90
2018-08-13T07:05:58.079Z,1.80
2018-08-13T07:08:27.267Z,2.30
2018-08-13T07:10:57.683Z,2.00
2018-08-13T07:13:27.238Z,1.83
2018-08-13T07:15:57.299Z,1.93
2018-08-13T07:18:26.515Z,1.80
2018-08-13T07:20:56.085Z,1.83
2018-08-13T07:26:44.567Z,2.10
2018-08-13T07:29:14.950Z,1.87
2018-08-13T07:31:45.492Z,1.80
2018-08-13T07:36:51.243Z,1.80
2018-08-13T07:39:20.718Z,1.87
2018-08-13T07:41:50.044Z,1.83
2018-08-13T07:44:19.750Z,1.63
2018-08-13T07:46:48.962Z,1.90
2018-08-13T07:49:19.560Z,1.70
2018-08-13T07:51:48.944Z,1.70
2018-08-13T07:54:18.866Z,1.57
2018-08-13T07:56:50.696Z,1.77
2018-08-13T07:59:21.376Z,1.20
2018-08-13T08:01:51.664Z,1.60
2018-08-13T08:04:26.769Z,1.80
2018-08-13T08:06:55.737Z,1.70
2018-08-13T08:09:26.239Z,1.70
2018-08-13T08:11:56.411Z,1.60
2018-08-13T08:14:32.967Z,1.97
2018-08-13T08:17:03.440Z,1.70
2018-08-13T08:19:34.544Z,1.43
2018-08-13T08:22:05.420Z,1.90
2018-08-13T08:24:36.548Z,1.70
2018-08-13T08:27:09.232Z,1.50
2018-08-13T08:29:40.013Z,1.93
2018-08-13T08:32:10.852Z,1.80
2018-08-13T08:34:43.048Z,1.80
2018-08-13T08:37:13.014Z,1.67
2018-08-13T08:39:43.582Z,1.90
2018-08-13T08:42:14.066Z,1.90
2018-08-13T08:44:45.391Z,1.80
2018-08-13T08:47:13.943Z,2.10
2018-08-13T08:49:42.419Z,2.27
2018-08-13T08:52:10.896Z,1.70
2018-08-13T08:54:40.891Z,2.03
2018-08-13T08:57:10.568Z,2.03
2018-08-13T08:59:40.087Z,2.00
2018-08-13T09:02:09.022Z,2.20
2018-08-13T09:04:39.080Z,1.97
2018-08-13T09:07:20.216Z,2.30
2018-08-13T09:09:48.919Z,2.33
2018-08-13T09:12:17.398Z,1.90
2018-08-13T09:14:47.206Z,2.07
2018-08-13T09:17:27.743Z,2.17
2018-08-13T09:20:08.411Z,2.07
2018-08-13T09:22:49.698Z,2.00
2018-08-13T09:25:29.839Z,2.30
2018-08-13T09:31:05.493Z,2.00
2018-08-13T09:33:47.115Z,1.90
2018-08-13T09:36:16.993Z,2.17
2018-08-13T09:38:48.135Z,2.20
2018-08-13T09:41:18.341Z,2.03
2018-08-13T09:43:48.833Z,2.00
2018-08-13T09:46:19.552Z,2.37
2018-08-13T09:48:50.398Z,2.27
2018-08-13T09:54:15.202Z,2.17
2018-08-13T09:56:43.930Z,2.20
2018-08-13T09:59:12.612Z,2.00
2018-08-13T10:01:41.693Z,2.10
2018-08-13T10:04:11.179Z,2.10
2018-08-13T10:06:42.063Z,1.70
2018-08-13T10:09:13.272Z,2.00
2018-08-13T10:11:45.181Z,2.03
2018-08-13T10:14:16.428Z,1.77
2018-08-13T10:16:45.838Z,1.97
2018-08-13T10:19:16.096Z,2.00
2018-08-13T10:21:45.330Z,1.87
2018-08-13T10:28:30.564Z,1.93
2018-08-13T10:31:00.898Z,2.27
2018-08-13T10:33:30.738Z,1.97
2018-08-13T10:36:00.925Z,2.10
2018-08-13T10:38:32.048Z,2.00
2018-08-13T10:41:02.514Z,1.93
2018-08-13T10:43:32.916Z,2.00
2018-08-13T10:46:02.558Z,2.10
2018-08-13T10:48:32.669Z,2.00
2018-08-13T10:51:03.616Z,2.20
2018-08-13T10:53:36.404Z,2.13
2018-08-13T10:56:06.022Z,2.20
2018-08-13T10:58:34.880Z,2.10
2018-08-13T11:01:04.497Z,2.00
2018-08-13T11:03:33.884Z,2.03
2018-08-13T11:09:19.419Z,2.10
2018-08-13T11:11:48.841Z,2.07
2018-08-13T11:14:18.779Z,1.80
2018-08-13T11:16:48.203Z,2.00
2018-08-13T11:19:23.045Z,2.10
2018-08-13T11:21:55.032Z,2.27
2018-08-13T11:24:24.417Z,1.97
2018-08-13T11:26:54.912Z,2.10
2018-08-13T11:29:32.547Z,1.93
2018-08-13T11:32:02.293Z,2.00
2018-08-13T11:34:31.978Z,1.90
2018-08-13T11:37:02.162Z,2.20
2018-08-13T11:39:33.213Z,2.27
2018-08-13T11:42:03.323Z,2.30
2018-08-13T11:44:35.176Z,2.33
2018-08-13T11:47:03.668Z,2.20
2018-08-13T11:49:32.640Z,1.97
2018-08-13T11:52:01.747Z,2.17
2018-08-13T11:54:30.473Z,2.50
2018-08-13T11:57:01.879Z,1.97
2018-08-13T11:59:30.832Z,2.30
2018-08-13T12:01:59.681Z,2.80
2018-08-13T12:04:29.085Z,2.50
2018-08-13T12:07:08.581Z,2.40
2018-08-13T12:09:37.145Z,2.27
2018-08-13T12:12:06.052Z,2.70
2018-08-13T12:14:35.943Z,2.23
2018-08-13T12:17:05.150Z,2.30
2018-08-13T12:19:34.762Z,2.37
2018-08-13T12:22:03.671Z,2.27
2018-08-13T12:24:32.737Z,2.30
2018-08-13T12:27:03.744Z,2.10
2018-08-13T12:29:36.026Z,2.30
2018-08-13T12:32:05.850Z,2.03
2018-08-13T12:34:35.902Z,2.00
2018-08-13T12:37:09.973Z,2.13
2018-08-13T12:39:40.669Z,2.30
2018-08-13T12:42:10.204Z,2.40
2018-08-13T12:44:39.445Z,2.00
2018-08-13T12:47:20.102Z,1.93
2018-08-13T12:49:49.641Z,2.23
2018-08-13T12:52:18.576Z,1.80
2018-08-13T12:54:48.951Z,1.83
2018-08-13T12:57:18.910Z,2.00
2018-08-13T12:59:48.343Z,2.13
2018-08-13T13:02:17.881Z,2.20
2018-08-13T13:04:48.133Z,2.50
2018-08-13T13:07:18.160Z,2.33
2018-08-13T13:09:49.541Z,2.20
2018-08-13T13:12:19.746Z,2.53
2018-08-13T13:14:51.045Z,2.50
2018-08-13T13:17:28.620Z,2.20
2018-08-13T13:20:00.314Z,2.17
2018-08-13T13:22:30.513Z,2.63
2018-08-13T13:25:00.678Z,2.10
2018-08-13T13:27:34.412Z,2.00
2018-08-13T13:30:04.766Z,2.17
2018-08-13T13:32:35.853Z,1.97
2018-08-13T13:35:08.021Z,2.30
2018-08-13T13:37:38.551Z,1.80
2018-08-13T13:40:11.314Z,1.80
2018-08-13T13:42:41.423Z,2.23
2018-08-13T13:45:11.506Z,2.03
2018-08-13T13:47:54.832Z,2.33
2018-08-13T13:50:24.509Z,1.80
2018-08-13T13:52:54.359Z,2.17
2018-08-13T13:55:22.953Z,1.80
2018-08-13T13:57:53.080Z,1.77
2018-08-13T14:00:22.941Z,1.73
2018-08-13T14:02:52.850Z,2.03
2018-08-13T14:05:24.237Z,1.50
2018-08-13T14:07:55.052Z,1.73
2018-08-13T14:10:25.469Z,1.67
2018-08-13T14:12:56.326Z,2.00
2018-08-13T14:15:26.068Z,1.90
2018-08-13T14:17:59.316Z,1.50
2018-08-13T14:20:29.686Z,1.77
2018-08-13T14:23:03.065Z,1.80
2018-08-13T14:25:33.184Z,2.17
2018-08-13T14:28:12.505Z,1.70
2018-08-13T14:30:46.379Z,1.70
2018-08-13T14:33:16.409Z,1.50
2018-08-13T14:35:48.175Z,1.27
2018-08-13T14:38:20.739Z,1.60
2018-08-13T14:40:50.521Z,1.90
2018-08-13T14:43:19.820Z,1.47
2018-08-13T14:45:50.142Z,1.60
2018-08-13T14:48:23.902Z,1.80
2018-08-13T14:50:55.373Z,1.63
2018-08-13T14:53:26.983Z,1.87
2018-08-13T14:55:57.689Z,2.70
2018-08-13T14:58:31.452Z,3.30
2018-08-13T15:01:01.351Z,5.07
2018-08-13T15:03:32.873Z,2.63
2018-08-13T15:06:04.343Z,2.80
2018-08-13T15:08:36.821Z,2.23
2018-08-13T15:11:07.494Z,3.00
2018-08-13T15:13:37.293Z,4.43
2018-08-13T15:16:06.589Z,4.77
2018-08-13T15:18:42.477Z,4.90
2018-08-13T15:21:12.125Z,2.83
2018-08-13T15:23:41.809Z,3.07
2018-08-13T15:26:10.289Z,2.20
2018-08-13T15:29:26.351Z,2.00
2018-08-13T15:31:56.387Z,2.00
2018-08-13T15:34:26.488Z,2.30
2018-08-13T15:36:55.981Z,2.37
2018-08-13T15:39:38.634Z,1.57
2018-08-13T15:42:12.007Z,1.70
2018-08-13T15:44:41.152Z,1.53
2018-08-13T15:47:14.646Z,1.60
2018-08-13T15:49:50.980Z,1.67
2018-08-13T15:52:19.580Z,1.50
2018-08-13T15:54:53.129Z,2.17
2018-08-13T15:57:23.244Z,1.60
2018-08-13T15:59:53.909Z,1.87
2018-08-13T16:02:23.676Z,1.40
2018-08-13T16:04:54.035Z,1.50
2018-08-13T16:07:24.510Z,1.57
2018-08-13T16:09:55.359Z,1.10
2018-08-13T16:12:29.566Z,1.60
2018-08-13T16:14:59.358Z,1.10
2018-08-13T16:17:28.255Z,1.77
2018-08-13T16:20:16.352Z,1.17
2018-08-13T16:22:46.783Z,1.50
2018-08-13T16:25:16.326Z,1.30
2018-08-13T16:27:46.697Z,1.10
2018-08-13T16:30:28.748Z,1.47
2018-08-13T16:32:58.152Z,1.27
2018-08-13T16:35:28.440Z,1.37
2018-08-13T16:37:59.704Z,1.70
2018-08-13T16:40:30.564Z,1.53
2018-08-13T16:43:01.170Z,1.33
2018-08-13T16:45:32.585Z,1.50
2018-08-13T16:48:04.694Z,1.40
2018-08-13T16:53:31.482Z,1.33
2018-08-13T16:56:01.688Z,1.30
2018-08-13T16:58:32.924Z,1.10
2018-08-13T17:01:04.738Z,1.60
2018-08-13T17:03:49.094Z,1.90
2018-08-13T17:06:19.916Z,1.93
2018-08-13T17:08:50.668Z,2.20
2018-08-13T17:11:20.069Z,1.50
2018-08-13T17:13:49.639Z,1.40
2018-08-13T17:16:18.674Z,2.13
2018-08-13T17:18:47.798Z,1.73
2018-08-13T17:21:18.785Z,1.20
2018-08-13T17:25:28.195Z,1.33
2018-08-13T17:27:56.860Z,1.37
2018-08-13T17:30:26.800Z,1.30
2018-08-13T17:32:57.289Z,1.30
2018-08-13T17:35:34.572Z,1.20
2018-08-13T17:38:04.602Z,1.13
2018-08-13T17:40:33.183Z,1.20
2018-08-13T17:43:08.666Z,1.10
2018-08-13T17:45:38.042Z,1.37
2018-08-13T17:48:10.735Z,1.30
2018-08-13T17:50:41.025Z,1.57
2018-08-13T17:53:12.292Z,1.20
2018-08-13T17:55:41.340Z,2.17
2018-08-13T17:58:09.866Z,3.70
2018-08-13T18:00:42.222Z,3.03
2018-08-13T18:03:19.529Z,2.47
2018-08-13T18:05:48.083Z,1.80
2018-08-13T18:08:17.654Z,1.73
2018-08-13T18:10:47.983Z,1.30
2018-08-13T18:13:26.864Z,1.50
2018-08-13T18:15:55.718Z,1.50
2018-08-13T18:18:24.227Z,1.20
2018-08-13T18:20:55.086Z,1.10
2018-08-13T18:23:27.028Z,1.20
2018-08-13T18:25:57.456Z,1.40
2018-08-13T18:28:26.923Z,1.43
2018-08-13T18:30:55.982Z,1.20
2018-08-13T18:33:25.630Z,1.00
2018-08-13T18:35:54.414Z,1.60
2018-08-13T18:38:22.943Z,1.37
2018-08-13T18:40:51.454Z,1.30
2018-08-13T18:43:20.736Z,1.60
2018-08-13T18:46:07.019Z,1.30
2018-08-13T18:48:36.038Z,0.90
2018-08-13T18:51:04.684Z,1.30
2018-08-13T18:53:33.817Z,1.20
2018-08-13T18:56:03.409Z,1.40
2018-08-13T18:58:32.116Z,1.13
2018-08-13T19:01:00.671Z,1.33
2018-08-13T19:03:30.546Z,1.30
2018-08-13T19:05:59.844Z,1.60
2018-08-13T19:08:28.509Z,1.57
2018-08-13T19:10:57.855Z,1.50
2018-08-13T19:13:27.059Z,1.53
2018-08-13T19:15:56.080Z,1.33
2018-08-13T19:18:27.077Z,1.20
2018-08-13T19:20:56.736Z,1.30
2018-08-13T19:23:25.244Z,1.43
2018-08-13T19:25:54.382Z,1.50
2018-08-13T19:28:24.990Z,1.40
2018-08-13T19:30:54.497Z,1.20
2018-08-13T19:33:23.540Z,1.40
2018-08-13T19:35:52.622Z,1.40
2018-08-13T19:38:21.093Z,1.40
2018-08-13T19:40:56.082Z,1.30
2018-08-13T19:43:25.448Z,1.37
2018-08-13T19:45:55.731Z,1.63
2018-08-13T19:48:25.027Z,1.30
2018-08-13T19:50:56.019Z,1.20
2018-08-13T19:53:26.141Z,1.20
2018-08-13T19:55:56.233Z,1.40
2018-08-13T19:58:25.559Z,1.30
2018-08-13T20:00:56.786Z,1.40
2018-08-13T20:03:25.547Z,1.30
2018-08-13T20:05:54.843Z,1.10
2018-08-13T20:08:23.714Z,1.40
2018-08-13T20:10:56.625Z,1.30
2018-08-13T20:13:25.579Z,1.83
2018-08-13T20:15:54.089Z,1.30
2018-08-13T20:18:23.327Z,1.13
2018-08-13T20:20:52.726Z,1.20
2018-08-13T20:23:21.246Z,1.47
2018-08-13T20:25:50.063Z,1.23
2018-08-13T20:28:18.599Z,1.27
2018-08-13T20:30:47.097Z,1.30
2018-08-13T20:33:35.110Z,1.40
2018-08-13T20:36:03.625Z,1.03
2018-08-13T20:38:32.771Z,1.20
2018-08-13T20:41:01.692Z,1.07
2018-08-13T20:43:30.801Z,1.50
2018-08-13T20:46:21.306Z,1.23
2018-08-13T20:48:51.069Z,1.20
2018-08-13T20:51:20.447Z,1.00
2018-08-13T20:53:49.199Z,1.20
2018-08-13T20:56:17.705Z,1.33
2018-08-13T20:58:47.051Z,1.10
2018-08-13T21:01:15.832Z,1.30
2018-08-13T21:03:45.943Z,1.20
2018-08-13T21:06:15.449Z,1.20
2018-08-13T21:08:44.535Z,1.20
2018-08-13T21:11:13.423Z,1.30
2018-08-13T21:13:42.416Z,1.40
2018-08-13T21:16:12.983Z,1.20
2018-08-13T21:18:43.160Z,1.20
2018-08-13T21:21:12.137Z,1.03
2018-08-13T21:23:41.212Z,1.10
2018-08-13T21:26:09.740Z,1.30
2018-08-13T21:28:38.559Z,1.20
2018-08-13T21:31:08.437Z,0.97
2018-08-13T21:33:37.732Z,1.10
2018-08-13T21:36:07.642Z,1.10
2018-08-13T21:38:37.364Z,1.20
2018-08-13T21:41:08.512Z,1.50
2018-08-13T21:43:37.559Z,1.20
2018-08-13T21:46:06.996Z,1.20
2018-08-13T21:48:36.394Z,1.13
2018-08-13T21:51:05.029Z,1.20
2018-08-13T21:53:34.793Z,0.97
2018-08-13T21:56:04.729Z,1.07
2018-08-13T21:58:33.708Z,1.20
2018-08-13T22:04:44.999Z,1.00
2018-08-13T22:07:13.781Z,1.30
2018-08-13T22:09:42.801Z,1.10
2018-08-13T22:12:16.925Z,1.13
2018-08-13T22:14:46.858Z,0.93
2018-08-13T22:17:16.423Z,1.20
2018-08-13T22:19:49.471Z,1.00
2018-08-13T22:22:18.933Z,1.00
2018-08-13T22:24:59.500Z,1.30
2018-08-13T22:27:28.698Z,1.10
2018-08-13T22:29:58.840Z,1.07
2018-08-13T22:32:27.995Z,1.03
2018-08-13T22:34:56.623Z,1.20
2018-08-13T22:37:25.406Z,0.97
2018-08-13T22:39:54.390Z,1.03
2018-08-13T22:42:46.149Z,1.13
2018-08-13T22:45:22.890Z,1.07
2018-08-13T22:47:52.578Z,1.20
2018-08-13T22:50:21.161Z,1.20
2018-08-13T22:52:51.568Z,1.00
2018-08-13T22:55:22.049Z,1.00
2018-08-13T22:57:50.650Z,0.80
2018-08-13T23:00:20.933Z,1.00
2018-08-13T23:07:49.954Z,0.97
2018-08-13T23:10:22.501Z,1.20
2018-08-13T23:12:55.899Z,0.83
2018-08-13T23:15:25.070Z,1.10
2018-08-13T23:17:54.137Z,0.80
2018-08-13T23:20:26.987Z,0.93
2018-08-13T23:22:59.129Z,1.00
2018-08-13T23:25:28.377Z,0.70
2018-08-13T23:28:00.123Z,0.87
2018-08-13T23:30:29.905Z,1.00
2018-08-13T23:33:19.486Z,0.93
2018-08-13T23:35:49.290Z,0.77
2018-08-13T23:38:18.599Z,0.80
2018-08-13T23:40:47.963Z,0.97
2018-08-13T23:45:51.611Z,0.80
2018-08-13T23:48:21.337Z,0.87
2018-08-13T23:50:50.374Z,0.80
2018-08-13T23:53:22.088Z,0.73
2018-08-13T23:55:51.242Z,0.80
2018-08-13T23:58:20.466Z,0.80
